createdAt,value
2023-03-22T00:00:24.438Z,963.91
2023-03-22T00:01:14.337Z,963.94
2023-03-22T00:02:04.317Z,963.93
2023-03-22T00:02:54.423Z,963.94
2023-03-22T00:03:44.389Z,963.87
2023-03-22T00:04:34.317Z,963.86
2023-03-22T00:05:24.279Z,963.88
2023-03-22T00:06:14.278Z,963.89
2023-03-22T00:07:04.277Z,963.86
2023-03-22T00:07:54.258Z,963.84
2023-03-22T00:08:44.249Z,963.85
2023-03-22T00:09:34.259Z,963.88
2023-03-22T00:10:24.217Z,963.94
2023-03-22T00:11:14.228Z,963.92
2023-03-22T00:12:04.229Z,963.93
2023-03-22T00:12:54.197Z,963.93
2023-03-22T00:13:44.218Z,963.88
2023-03-22T00:14:34.178Z,963.88
2023-03-22T00:15:24.171Z,963.88
2023-03-22T00:16:14.313Z,963.90
2023-03-22T00:17:04.159Z,963.88
2023-03-22T00:17:54.157Z,963.87
2023-03-22T00:18:44.157Z,963.89
2023-03-22T00:19:34.364Z,963.86
2023-03-22T00:20:24.116Z,963.87
2023-03-22T00:21:14.156Z,963.86
2023-03-22T00:22:04.098Z,963.84
2023-03-22T00:22:54.115Z,963.82
2023-03-22T00:23:44.070Z,963.84
2023-03-22T00:24:34.086Z,963.80
2023-03-22T00:25:24.049Z,963.80
2023-03-22T00:26:14.078Z,963.83
2023-03-22T00:27:04.046Z,963.84
2023-03-22T00:27:54.040Z,963.81
2023-03-22T00:28:44.106Z,963.79
2023-03-22T00:29:34.038Z,963.72
2023-03-22T00:30:24.009Z,963.72
2023-03-22T00:31:14.017Z,963.70
2023-03-22T00:32:03.997Z,963.69
2023-03-22T00:32:54.007Z,963.66
2023-03-22T00:33:44.025Z,963.65
2023-03-22T00:34:33.969Z,963.69
2023-03-22T00:35:24.007Z,963.69
2023-03-22T00:36:13.967Z,963.66
2023-03-22T00:37:03.955Z,963.61
2023-03-22T00:37:53.975Z,963.64
2023-03-22T00:38:44.610Z,963.66
2023-03-22T00:39:33.916Z,963.61
2023-03-22T00:40:23.892Z,963.61
2023-03-22T00:41:13.922Z,963.62
2023-03-22T00:42:03.867Z,963.63
2023-03-22T00:42:53.865Z,963.63
2023-03-22T00:43:43.860Z,963.59
2023-03-22T00:44:33.856Z,963.62
2023-03-22T00:45:23.853Z,963.63
2023-03-22T00:46:13.896Z,963.67
2023-03-22T00:47:03.839Z,963.63
2023-03-22T00:47:53.910Z,963.70
2023-03-22T00:48:43.834Z,963.65
2023-03-22T00:49:33.804Z,963.65
2023-03-22T00:50:23.795Z,963.67
2023-03-22T00:51:13.800Z,963.66
2023-03-22T00:52:03.764Z,963.61
2023-03-22T00:52:53.776Z,963.63
2023-03-22T00:53:43.958Z,963.65
2023-03-22T00:54:33.765Z,963.62
2023-03-22T00:55:23.745Z,963.65
2023-03-22T00:56:13.929Z,963.64
2023-03-22T00:57:03.726Z,963.62
2023-03-22T00:57:53.716Z,963.60
2023-03-22T00:58:43.767Z,963.63
2023-03-22T00:59:33.686Z,963.67
2023-03-22T01:00:23.670Z,963.61
2023-03-22T01:01:14.121Z,963.64
2023-03-22T01:02:03.653Z,963.59
2023-03-22T01:02:53.667Z,963.58
2023-03-22T01:03:43.959Z,963.59
2023-03-22T01:04:33.648Z,963.58
2023-03-22T01:05:23.633Z,963.57
2023-03-22T01:06:13.631Z,963.58
2023-03-22T01:07:03.615Z,963.57
2023-03-22T01:07:53.593Z,963.55
2023-03-22T01:08:43.588Z,963.46
2023-03-22T01:09:33.602Z,963.50
2023-03-22T01:10:23.570Z,963.47
2023-03-22T01:11:13.573Z,963.49
2023-03-22T01:12:03.580Z,963.46
2023-03-22T01:12:53.558Z,963.48
2023-03-22T01:13:43.548Z,963.48
2023-03-22T01:14:33.549Z,963.46
2023-03-22T01:15:23.497Z,963.47
2023-03-22T01:16:13.534Z,963.47
2023-03-22T01:17:03.490Z,963.43
2023-03-22T01:17:53.497Z,963.43
2023-03-22T01:18:43.466Z,963.41
2023-03-22T01:19:33.467Z,963.42
2023-03-22T01:20:23.438Z,963.44
2023-03-22T01:21:13.470Z,963.42
2023-03-22T01:22:03.453Z,963.46
2023-03-22T01:22:53.418Z,963.45
2023-03-22T01:23:43.441Z,963.46
2023-03-22T01:24:33.419Z,963.43
2023-03-22T01:25:23.390Z,963.45
2023-03-22T01:26:13.433Z,963.46
2023-03-22T01:27:03.373Z,963.44
2023-03-22T01:27:53.377Z,963.43
2023-03-22T01:28:43.364Z,963.41
2023-03-22T01:29:33.381Z,963.44
2023-03-22T01:30:23.335Z,963.43
2023-03-22T01:31:13.339Z,963.36
2023-03-22T01:32:03.334Z,963.38
2023-03-22T01:32:53.314Z,963.42
2023-03-22T01:33:43.316Z,963.36
2023-03-22T01:34:33.363Z,963.39
2023-03-22T01:35:23.405Z,963.44
2023-03-22T01:36:13.286Z,963.42
2023-03-22T01:37:03.341Z,963.47
2023-03-22T01:37:53.273Z,963.45
2023-03-22T01:38:43.261Z,963.48
2023-03-22T01:39:33.255Z,963.48
2023-03-22T01:40:23.262Z,963.49
2023-03-22T01:41:13.245Z,963.54
2023-03-22T01:42:03.204Z,963.49
2023-03-22T01:42:53.219Z,963.53
2023-03-22T01:43:43.213Z,963.52
2023-03-22T01:44:33.211Z,963.51
2023-03-22T01:45:23.194Z,963.53
2023-03-22T01:46:13.235Z,963.55
2023-03-22T01:47:03.156Z,963.49
2023-03-22T01:47:53.272Z,963.49
2023-03-22T01:48:43.175Z,963.46
2023-03-22T01:49:33.128Z,963.46
2023-03-22T01:50:23.130Z,963.45
2023-03-22T01:51:13.105Z,963.40
2023-03-22T01:52:03.103Z,963.46
2023-03-22T01:52:53.107Z,963.41
2023-03-22T01:53:43.108Z,963.41
2023-03-22T01:54:33.082Z,963.41
2023-03-22T01:55:23.082Z,963.38
2023-03-22T01:56:13.066Z,963.42
2023-03-22T01:57:03.085Z,963.39
2023-03-22T01:57:53.043Z,963.33
2023-03-22T01:58:43.055Z,963.29
2023-03-22T01:59:33.035Z,963.29
2023-03-22T02:00:23.013Z,963.28
2023-03-22T02:01:13.102Z,963.27
2023-03-22T02:02:03.014Z,963.29
2023-03-22T02:02:53.006Z,963.31
2023-03-22T02:03:42.964Z,963.29
2023-03-22T02:04:32.964Z,963.25
2023-03-22T02:05:22.995Z,963.22
2023-03-22T02:06:12.957Z,963.23
2023-03-22T02:07:02.937Z,963.22
2023-03-22T02:07:52.956Z,963.19
2023-03-22T02:08:42.931Z,963.21
2023-03-22T02:09:32.915Z,963.20
2023-03-22T02:10:22.937Z,963.18
2023-03-22T02:11:12.905Z,963.16
2023-03-22T02:12:02.880Z,963.20
2023-03-22T02:12:52.874Z,963.20
2023-03-22T02:13:42.877Z,963.19
2023-03-22T02:14:32.858Z,963.17
2023-03-22T02:15:22.844Z,963.20
2023-03-22T02:16:12.908Z,963.22
2023-03-22T02:17:02.884Z,963.18
2023-03-22T02:17:52.841Z,963.20
2023-03-22T02:18:42.814Z,963.18
2023-03-22T02:19:32.813Z,963.16
2023-03-22T02:20:22.780Z,963.16
2023-03-22T02:21:12.789Z,963.10
2023-03-22T02:22:02.781Z,963.13
2023-03-22T02:22:52.771Z,963.14
2023-03-22T02:23:42.760Z,963.14
2023-03-22T02:24:32.860Z,963.10
2023-03-22T02:25:22.743Z,963.09
2023-03-22T02:26:12.741Z,963.08
2023-03-22T02:27:02.726Z,963.09
2023-03-22T02:27:52.721Z,963.09
2023-03-22T02:28:42.700Z,963.12
2023-03-22T02:29:32.700Z,963.11
2023-03-22T02:30:22.689Z,963.10
2023-03-22T02:31:12.767Z,963.07
2023-03-22T02:32:02.669Z,963.07
2023-03-22T02:32:52.667Z,963.09
2023-03-22T02:33:42.643Z,963.08
2023-03-22T02:34:32.683Z,963.05
2023-03-22T02:35:22.665Z,963.07
2023-03-22T02:36:12.622Z,963.09
2023-03-22T02:37:02.632Z,963.04
2023-03-22T02:37:52.608Z,963.09
2023-03-22T02:38:42.622Z,963.10
2023-03-22T02:39:32.611Z,963.09
2023-03-22T02:40:22.588Z,963.07
2023-03-22T02:41:12.600Z,963.05
2023-03-22T02:42:02.555Z,963.07
2023-03-22T02:42:52.567Z,963.04
2023-03-22T02:43:42.528Z,963.04
2023-03-22T02:44:32.519Z,963.01
2023-03-22T02:45:22.521Z,963.04
2023-03-22T02:46:12.547Z,963.03
2023-03-22T02:47:02.509Z,963.07
2023-03-22T02:47:52.549Z,963.05
2023-03-22T02:48:42.482Z,963.06
2023-03-22T02:49:32.469Z,963.11
2023-03-22T02:50:22.486Z,963.07
2023-03-22T02:51:12.446Z,963.04
2023-03-22T02:52:02.455Z,963.04
2023-03-22T02:52:52.427Z,963.04
2023-03-22T02:53:42.426Z,963.06
2023-03-22T02:54:32.414Z,963.10
2023-03-22T02:55:22.419Z,963.04
2023-03-22T02:56:12.407Z,963.06
2023-03-22T02:57:02.388Z,963.09
2023-03-22T02:57:52.385Z,963.09
2023-03-22T02:58:42.384Z,963.08
2023-03-22T02:59:32.356Z,963.02
2023-03-22T03:00:22.379Z,963.05
2023-03-22T03:01:12.395Z,963.02
2023-03-22T03:02:02.362Z,963.08
2023-03-22T03:02:52.345Z,963.07
2023-03-22T03:03:42.362Z,963.08
2023-03-22T03:04:32.313Z,963.05
2023-03-22T03:05:22.313Z,963.10
2023-03-22T03:06:12.350Z,963.09
2023-03-22T03:07:02.280Z,963.11
2023-03-22T03:07:52.262Z,963.10
2023-03-22T03:08:42.312Z,963.12
2023-03-22T03:09:32.250Z,963.09
2023-03-22T03:10:22.253Z,963.09
2023-03-22T03:11:12.242Z,963.13
2023-03-22T03:12:02.214Z,963.11
2023-03-22T03:12:52.210Z,963.13
2023-03-22T03:13:42.224Z,963.10
2023-03-22T03:14:32.214Z,963.12
2023-03-22T03:15:22.189Z,963.11
2023-03-22T03:16:12.204Z,963.12
2023-03-22T03:17:02.172Z,963.16
2023-03-22T03:17:52.171Z,963.15
2023-03-22T03:18:42.160Z,963.11
2023-03-22T03:19:32.170Z,963.11
2023-03-22T03:20:22.163Z,963.15
2023-03-22T03:21:12.149Z,963.10
2023-03-22T03:22:02.121Z,963.09
2023-03-22T03:22:52.119Z,963.14
2023-03-22T03:23:42.113Z,963.16
2023-03-22T03:24:32.092Z,963.17
2023-03-22T03:25:22.098Z,963.15
2023-03-22T03:26:12.070Z,963.24
2023-03-22T03:27:02.068Z,963.20
2023-03-22T03:27:52.084Z,963.20
2023-03-22T03:28:42.059Z,963.22
2023-03-22T03:29:32.094Z,963.20
2023-03-22T03:30:22.033Z,963.21
2023-03-22T03:31:12.069Z,963.24
2023-03-22T03:32:02.012Z,963.23
2023-03-22T03:32:52.006Z,963.19
2023-03-22T03:33:41.986Z,963.20
2023-03-22T03:34:32.011Z,963.19
2023-03-22T03:35:21.998Z,963.18
2023-03-22T03:36:11.970Z,963.15
2023-03-22T03:37:01.946Z,963.16
2023-03-22T03:37:51.977Z,963.17
2023-03-22T03:38:41.929Z,963.18
2023-03-22T03:39:31.946Z,963.17
2023-03-22T03:40:21.926Z,963.17
2023-03-22T03:41:11.897Z,963.20
2023-03-22T03:42:01.886Z,963.18
2023-03-22T03:42:51.981Z,963.21
2023-03-22T03:43:41.899Z,963.25
2023-03-22T03:44:31.877Z,963.25
2023-03-22T03:45:21.869Z,963.20
2023-03-22T03:46:11.946Z,963.23
2023-03-22T03:47:01.875Z,963.19
2023-03-22T03:47:51.884Z,963.22
2023-03-22T03:48:41.833Z,963.17
2023-03-22T03:49:31.820Z,963.17
2023-03-22T03:50:21.809Z,963.25
2023-03-22T03:51:11.803Z,963.21
2023-03-22T03:52:01.814Z,963.16
2023-03-22T03:52:51.793Z,963.18
2023-03-22T03:53:41.773Z,963.18
2023-03-22T03:54:31.766Z,963.23
2023-03-22T03:55:21.760Z,963.22
2023-03-22T03:56:11.745Z,963.20
2023-03-22T03:57:03.998Z,963.15
2023-03-22T03:57:51.737Z,963.18
2023-03-22T03:58:41.740Z,963.16
2023-03-22T03:59:31.706Z,963.19
2023-03-22T04:00:21.702Z,963.17
2023-03-22T04:01:11.682Z,963.16
2023-03-22T04:02:01.694Z,963.15
2023-03-22T04:02:51.684Z,963.16
2023-03-22T04:03:41.678Z,963.17
2023-03-22T04:04:31.694Z,963.16
2023-03-22T04:05:21.656Z,963.21
2023-03-22T04:06:11.641Z,963.21
2023-03-22T04:07:01.655Z,963.17
2023-03-22T04:07:51.624Z,963.17
2023-03-22T04:08:41.608Z,963.15
2023-03-22T04:09:31.603Z,963.16
2023-03-22T04:10:21.626Z,963.14
2023-03-22T04:11:11.592Z,963.20
2023-03-22T04:12:01.577Z,963.15
2023-03-22T04:12:51.571Z,963.13
2023-03-22T04:13:41.578Z,963.13
2023-03-22T04:14:31.559Z,963.14
2023-03-22T04:15:21.558Z,963.14
2023-03-22T04:16:11.592Z,963.10
2023-03-22T04:17:01.551Z,963.11
2023-03-22T04:17:51.525Z,963.15
2023-03-22T04:18:41.533Z,963.13
2023-03-22T04:19:31.530Z,963.12
2023-03-22T04:20:21.474Z,963.09
2023-03-22T04:21:11.483Z,963.08
2023-03-22T04:22:01.482Z,963.10
2023-03-22T04:22:51.464Z,963.07
2023-03-22T04:23:41.476Z,963.09
2023-03-22T04:24:31.422Z,963.11
2023-03-22T04:25:21.426Z,963.07
2023-03-22T04:26:11.406Z,963.06
2023-03-22T04:27:01.462Z,963.07
2023-03-22T04:27:51.581Z,963.05
2023-03-22T04:28:41.416Z,963.06
2023-03-22T04:29:31.397Z,963.03
2023-03-22T04:30:21.364Z,963.02
2023-03-22T04:31:11.399Z,963.04
2023-03-22T04:32:01.373Z,963.01
2023-03-22T04:32:51.344Z,963.01
2023-03-22T04:33:41.330Z,963.02
2023-03-22T04:34:31.332Z,963.01
2023-03-22T04:35:21.395Z,962.99
2023-03-22T04:36:11.322Z,963.03
2023-03-22T04:37:01.306Z,963.01
2023-03-22T04:37:51.295Z,962.99
2023-03-22T04:38:41.269Z,963.01
2023-03-22T04:39:31.305Z,962.97
2023-03-22T04:40:21.289Z,962.98
2023-03-22T04:41:11.247Z,962.98
2023-03-22T04:42:01.240Z,962.98
2023-03-22T04:42:51.249Z,962.93
2023-03-22T04:43:41.216Z,962.95
2023-03-22T04:44:31.224Z,962.95
2023-03-22T04:45:21.225Z,962.93
2023-03-22T04:46:11.214Z,962.93
2023-03-22T04:47:01.196Z,962.87
2023-03-22T04:47:51.266Z,962.87
2023-03-22T04:48:41.163Z,962.90
2023-03-22T04:49:31.145Z,962.90
2023-03-22T04:50:21.165Z,962.92
2023-03-22T04:51:11.133Z,962.94
2023-03-22T04:52:01.136Z,962.90
2023-03-22T04:52:51.138Z,962.89
2023-03-22T04:53:41.114Z,962.92
2023-03-22T04:54:31.115Z,962.93
2023-03-22T04:55:21.106Z,962.94
2023-03-22T04:56:11.094Z,962.91
2023-03-22T04:57:01.092Z,962.87
2023-03-22T04:57:51.064Z,962.92
2023-03-22T04:58:41.083Z,962.92
2023-03-22T04:59:31.045Z,962.90
2023-03-22T05:00:21.052Z,962.90
2023-03-22T05:01:11.155Z,962.93
2023-03-22T05:02:01.193Z,962.90
2023-03-22T05:02:51.037Z,962.92
2023-03-22T05:03:40.996Z,962.92
2023-03-22T05:04:30.983Z,962.93
2023-03-22T05:05:20.981Z,962.88
2023-03-22T05:06:10.974Z,962.88
2023-03-22T05:07:00.987Z,962.89
2023-03-22T05:07:50.962Z,962.90
2023-03-22T05:08:40.946Z,962.87
2023-03-22T05:09:30.932Z,962.89
2023-03-22T05:10:20.926Z,962.87
2023-03-22T05:11:10.929Z,962.89
2023-03-22T05:12:00.924Z,962.88
2023-03-22T05:12:50.920Z,962.89
2023-03-22T05:13:40.922Z,962.85
2023-03-22T05:14:30.910Z,962.90
2023-03-22T05:15:20.889Z,962.94
2023-03-22T05:16:10.910Z,962.94
2023-03-22T05:17:00.857Z,962.93
2023-03-22T05:17:50.843Z,962.94
2023-03-22T05:18:40.876Z,962.94
2023-03-22T05:19:30.860Z,962.96
2023-03-22T05:20:20.840Z,962.94
2023-03-22T05:21:10.798Z,962.94
2023-03-22T05:22:00.809Z,962.87
2023-03-22T05:22:50.777Z,962.91
2023-03-22T05:23:40.777Z,962.90
2023-03-22T05:24:30.789Z,962.93
2023-03-22T05:25:20.787Z,962.93
2023-03-22T05:26:10.771Z,962.91
2023-03-22T05:27:00.761Z,962.91
2023-03-22T05:27:50.735Z,962.87
2023-03-22T05:28:40.748Z,962.90
2023-03-22T05:29:30.736Z,962.87
2023-03-22T05:30:20.726Z,962.93
2023-03-22T05:31:10.707Z,962.83
2023-03-22T05:32:00.710Z,962.83
2023-03-22T05:32:50.685Z,962.83
2023-03-22T05:33:40.670Z,962.83
2023-03-22T05:34:30.666Z,962.80
2023-03-22T05:35:20.711Z,962.80
2023-03-22T05:36:10.638Z,962.84
2023-03-22T05:37:00.635Z,962.85
2023-03-22T05:37:50.625Z,962.85
2023-03-22T05:38:40.672Z,962.84
2023-03-22T05:39:30.616Z,962.82
2023-03-22T05:40:20.609Z,962.87
2023-03-22T05:41:10.599Z,962.90
2023-03-22T05:42:00.586Z,962.91
2023-03-22T05:42:50.611Z,962.87
2023-03-22T05:43:40.609Z,962.88
2023-03-22T05:44:30.560Z,962.92
2023-03-22T05:45:20.573Z,962.86
2023-03-22T05:46:10.545Z,962.87
2023-03-22T05:47:00.618Z,962.90
2023-03-22T05:47:50.552Z,962.92
2023-03-22T05:48:40.538Z,962.91
2023-03-22T05:49:30.519Z,962.91
2023-03-22T05:50:20.498Z,962.98
2023-03-22T05:51:10.493Z,962.93
2023-03-22T05:52:00.547Z,962.90
2023-03-22T05:52:50.477Z,962.92
2023-03-22T05:53:40.474Z,962.93
2023-03-22T05:54:30.442Z,962.93
2023-03-22T05:55:20.448Z,962.92
2023-03-22T05:56:10.426Z,962.97
2023-03-22T05:57:00.427Z,962.95
2023-03-22T05:57:50.407Z,962.91
2023-03-22T05:58:40.418Z,962.94
2023-03-22T05:59:30.395Z,962.97
2023-03-22T06:00:20.385Z,962.95
2023-03-22T06:01:10.385Z,962.99
2023-03-22T06:02:00.425Z,962.97
2023-03-22T06:02:50.398Z,962.98
2023-03-22T06:03:40.370Z,962.99
2023-03-22T06:04:30.374Z,962.98
2023-03-22T06:05:20.336Z,962.98
2023-03-22T06:06:10.359Z,962.99
2023-03-22T06:07:00.315Z,963.00
2023-03-22T06:07:50.317Z,962.98
2023-03-22T06:08:40.296Z,962.96
2023-03-22T06:09:30.333Z,963.00
2023-03-22T06:10:20.291Z,962.99
2023-03-22T06:11:10.290Z,963.01
2023-03-22T06:12:00.265Z,963.02
2023-03-22T06:12:50.267Z,963.00
2023-03-22T06:13:40.262Z,963.02
2023-03-22T06:14:30.264Z,963.02
2023-03-22T06:15:20.228Z,962.99
2023-03-22T06:16:10.271Z,963.03
2023-03-22T06:17:00.217Z,963.09
2023-03-22T06:17:50.199Z,963.02
2023-03-22T06:18:40.174Z,963.07
2023-03-22T06:19:30.177Z,963.06
2023-03-22T06:20:20.165Z,963.06
2023-03-22T06:21:10.174Z,963.07
2023-03-22T06:22:00.169Z,963.08
2023-03-22T06:22:50.153Z,963.08
2023-03-22T06:23:40.124Z,963.09
2023-03-22T06:24:30.133Z,963.09
2023-03-22T06:25:20.123Z,963.09
2023-03-22T06:26:10.125Z,963.11
2023-03-22T06:27:00.153Z,963.15
2023-03-22T06:27:50.083Z,963.15
2023-03-22T06:28:40.084Z,963.14
2023-03-22T06:29:30.082Z,963.16
2023-03-22T06:30:20.051Z,963.16
2023-03-22T06:31:10.081Z,963.14
2023-03-22T06:32:00.061Z,963.17
2023-03-22T06:32:50.027Z,963.17
2023-03-22T06:33:40.020Z,963.16
2023-03-22T06:34:30.015Z,963.21
2023-03-22T06:35:20.081Z,963.16
2023-03-22T06:36:09.982Z,963.14
2023-03-22T06:36:59.990Z,963.15
2023-03-22T06:37:49.966Z,963.13
2023-03-22T06:38:39.953Z,963.19
2023-03-22T06:39:29.973Z,963.15
2023-03-22T06:40:19.953Z,963.15
2023-03-22T06:41:09.940Z,963.14
2023-03-22T06:41:59.953Z,963.14
2023-03-22T06:42:49.937Z,963.11
2023-03-22T06:43:39.916Z,963.12
2023-03-22T06:44:29.896Z,963.09
2023-03-22T06:45:19.882Z,963.09
2023-03-22T06:46:09.937Z,963.09
2023-03-22T06:46:59.879Z,963.06
2023-03-22T06:47:49.891Z,963.06
2023-03-22T06:48:39.847Z,963.05
2023-03-22T06:49:29.840Z,963.07
2023-03-22T06:50:19.836Z,963.05
2023-03-22T06:51:09.837Z,963.03
2023-03-22T06:51:59.817Z,963.03
2023-03-22T06:52:49.802Z,963.07
2023-03-22T06:53:39.807Z,963.01
2023-03-22T06:54:29.794Z,963.01
2023-03-22T06:55:19.778Z,963.04
2023-03-22T06:56:09.776Z,963.04
2023-03-22T06:56:59.771Z,963.02
2023-03-22T06:57:49.753Z,962.98
2023-03-22T06:58:39.735Z,963.02
2023-03-22T06:59:29.727Z,963.05
2023-03-22T07:00:19.735Z,963.01
2023-03-22T07:01:09.724Z,963.05
2023-03-22T07:01:59.708Z,963.03
2023-03-22T07:02:52.593Z,962.98
2023-03-22T07:03:39.673Z,962.98
2023-03-22T07:04:29.718Z,963.02
2023-03-22T07:05:19.656Z,962.98
2023-03-22T07:06:09.684Z,963.00
2023-03-22T07:06:59.647Z,962.98
2023-03-22T07:07:49.635Z,963.00
2023-03-22T07:08:39.661Z,963.02
2023-03-22T07:09:29.626Z,963.02
2023-03-22T07:10:19.605Z,963.01
2023-03-22T07:11:09.608Z,962.97
2023-03-22T07:11:59.604Z,962.94
2023-03-22T07:12:49.578Z,962.98
2023-03-22T07:13:39.584Z,962.95
2023-03-22T07:14:30.366Z,963.00
2023-03-22T07:15:19.554Z,962.94
2023-03-22T07:16:09.660Z,962.97
2023-03-22T07:16:59.552Z,962.97
2023-03-22T07:17:49.548Z,962.98
2023-03-22T07:18:39.513Z,963.01
2023-03-22T07:19:29.522Z,963.02
2023-03-22T07:20:19.509Z,963.00
2023-03-22T07:21:09.492Z,962.97
2023-03-22T07:21:59.492Z,962.95
2023-03-22T07:22:49.473Z,962.94
2023-03-22T07:23:39.464Z,962.92
2023-03-22T07:24:29.472Z,962.92
2023-03-22T07:25:19.471Z,962.87
2023-03-22T07:26:09.442Z,962.88
2023-03-22T07:26:59.446Z,962.89
2023-03-22T07:27:49.420Z,962.88
2023-03-22T07:28:39.402Z,962.85
2023-03-22T07:29:29.419Z,962.79
2023-03-22T07:30:19.401Z,962.81
2023-03-22T07:31:09.382Z,962.81
2023-03-22T07:31:59.464Z,962.81
2023-03-22T07:32:49.380Z,962.80
2023-03-22T07:33:39.368Z,962.81
2023-03-22T07:34:29.366Z,962.80
2023-03-22T07:35:19.372Z,962.77
2023-03-22T07:36:09.372Z,962.80
2023-03-22T07:36:59.336Z,962.79
2023-03-22T07:37:49.310Z,962.78
2023-03-22T07:38:39.304Z,962.77
2023-03-22T07:39:29.308Z,962.77
2023-03-22T07:40:19.283Z,962.78
2023-03-22T07:41:09.288Z,962.77
2023-03-22T07:41:59.283Z,962.72
2023-03-22T07:42:49.266Z,962.75
2023-03-22T07:43:52.778Z,962.73
2023-03-22T07:44:30.258Z,962.80
2023-03-22T07:45:19.261Z,962.70
2023-03-22T07:46:09.289Z,962.75
2023-03-22T07:46:59.367Z,962.72
2023-03-22T07:47:49.225Z,962.75
2023-03-22T07:48:39.202Z,962.77
2023-03-22T07:49:29.214Z,962.69
2023-03-22T07:50:19.216Z,962.73
2023-03-22T07:51:09.181Z,962.74
2023-03-22T07:51:59.181Z,962.73
2023-03-22T07:52:49.171Z,962.74
2023-03-22T07:53:39.145Z,962.76
2023-03-22T07:54:33.850Z,962.75
2023-03-22T07:55:20.120Z,962.72
2023-03-22T07:56:09.116Z,962.70
2023-03-22T07:56:59.129Z,962.76
2023-03-22T07:57:49.091Z,962.77
2023-03-22T07:58:39.134Z,962.80
2023-03-22T07:59:29.075Z,962.78
2023-03-22T08:00:19.063Z,962.79
2023-03-22T08:01:09.122Z,962.76
2023-03-22T08:01:59.084Z,962.75
2023-03-22T08:02:49.079Z,962.70
2023-03-22T08:03:39.052Z,962.70
2023-03-22T08:04:29.031Z,962.73
2023-03-22T08:05:19.024Z,962.72
2023-03-22T08:06:09.006Z,962.75
2023-03-22T08:06:59.004Z,962.74
2023-03-22T08:07:48.986Z,962.77
2023-03-22T08:08:38.994Z,962.73
2023-03-22T08:09:28.977Z,962.78
2023-03-22T08:10:18.965Z,962.72
2023-03-22T08:11:08.970Z,962.73
2023-03-22T08:11:58.938Z,962.71
2023-03-22T08:12:48.937Z,962.73
2023-03-22T08:13:38.933Z,962.79
2023-03-22T08:14:36.209Z,962.76
2023-03-22T08:15:22.433Z,962.78
2023-03-22T08:16:08.973Z,962.80
2023-03-22T08:16:58.887Z,962.79
2023-03-22T08:17:48.877Z,962.78
2023-03-22T08:18:38.872Z,962.71
2023-03-22T08:19:28.859Z,962.68
2023-03-22T08:20:18.858Z,962.69
2023-03-22T08:21:08.849Z,962.73
2023-03-22T08:21:58.830Z,962.71
2023-03-22T08:22:48.843Z,962.70
2023-03-22T08:23:42.062Z,962.65
2023-03-22T08:24:28.800Z,962.65
2023-03-22T08:25:18.808Z,962.64
2023-03-22T08:26:08.802Z,962.67
2023-03-22T08:26:58.766Z,962.62
2023-03-22T08:27:48.788Z,962.59
2023-03-22T08:28:38.772Z,962.59
2023-03-22T08:29:28.738Z,962.60
2023-03-22T08:30:18.749Z,962.62
2023-03-22T08:31:08.733Z,962.61
2023-03-22T08:31:58.792Z,962.57
2023-03-22T08:32:48.716Z,962.53
2023-03-22T08:33:38.716Z,962.57
2023-03-22T08:34:28.702Z,962.57
2023-03-22T08:35:18.732Z,962.52
2023-03-22T08:36:08.696Z,962.51
2023-03-22T08:36:58.647Z,962.51
2023-03-22T08:37:48.646Z,962.47
2023-03-22T08:38:38.665Z,962.38
2023-03-22T08:39:28.644Z,962.34
2023-03-22T08:40:18.672Z,962.40
2023-03-22T08:41:08.618Z,962.39
2023-03-22T08:41:58.618Z,962.29
2023-03-22T08:42:48.605Z,962.37
2023-03-22T08:43:38.671Z,962.33
2023-03-22T08:44:28.579Z,962.29
2023-03-22T08:45:18.562Z,962.36
2023-03-22T08:46:08.591Z,962.31
2023-03-22T08:46:58.544Z,962.33
2023-03-22T08:47:48.597Z,962.31
2023-03-22T08:48:38.542Z,962.29
2023-03-22T08:49:28.566Z,962.32
2023-03-22T08:50:18.531Z,962.37
2023-03-22T08:51:08.503Z,962.37
2023-03-22T08:51:58.496Z,962.28
2023-03-22T08:52:48.499Z,962.37
2023-03-22T08:53:38.510Z,962.28
2023-03-22T08:54:28.495Z,962.26
2023-03-22T08:55:18.472Z,962.32
2023-03-22T08:56:08.442Z,962.30
2023-03-22T08:56:58.460Z,962.33
2023-03-22T08:57:48.442Z,962.25
2023-03-22T08:58:38.411Z,962.28
2023-03-22T08:59:28.429Z,962.26
2023-03-22T09:00:18.400Z,962.30
2023-03-22T09:01:08.549Z,962.30
2023-03-22T09:01:58.561Z,962.29
2023-03-22T09:02:52.006Z,962.29
2023-03-22T09:03:38.410Z,962.34
2023-03-22T09:04:28.451Z,962.23
2023-03-22T09:05:18.381Z,962.38
2023-03-22T09:06:08.352Z,962.19
2023-03-22T09:06:58.319Z,962.18
2023-03-22T09:07:48.313Z,962.25
2023-03-22T09:08:38.333Z,962.23
2023-03-22T09:09:28.321Z,962.19
2023-03-22T09:10:18.312Z,962.14
2023-03-22T09:11:08.280Z,962.19
2023-03-22T09:11:58.290Z,962.13
2023-03-22T09:12:48.253Z,962.07
2023-03-22T09:13:38.258Z,962.15
2023-03-22T09:14:28.344Z,962.16
2023-03-22T09:15:18.255Z,962.12
2023-03-22T09:16:08.275Z,962.09
2023-03-22T09:16:58.200Z,962.09
2023-03-22T09:17:48.244Z,962.12
2023-03-22T09:18:38.206Z,962.04
2023-03-22T09:19:28.207Z,962.04
2023-03-22T09:20:18.181Z,962.04
2023-03-22T09:21:08.176Z,962.09
2023-03-22T09:21:58.157Z,962.07
2023-03-22T09:22:48.158Z,962.00
2023-03-22T09:23:38.125Z,961.98
2023-03-22T09:24:28.136Z,961.99
2023-03-22T09:25:18.126Z,962.02
2023-03-22T09:26:08.120Z,962.05
2023-03-22T09:26:58.114Z,962.11
2023-03-22T09:27:48.093Z,962.08
2023-03-22T09:28:38.253Z,962.11
2023-03-22T09:29:28.143Z,962.05
2023-03-22T09:30:18.082Z,962.04
2023-03-22T09:31:08.140Z,962.05
2023-03-22T09:31:58.035Z,962.02
2023-03-22T09:32:48.034Z,962.03
2023-03-22T09:33:38.025Z,962.07
2023-03-22T09:34:28.057Z,961.95
2023-03-22T09:35:18.015Z,962.04
2023-03-22T09:36:07.995Z,961.97
2023-03-22T09:36:58.597Z,961.94
2023-03-22T09:37:47.980Z,961.98
2023-03-22T09:38:37.974Z,961.95
2023-03-22T09:39:27.975Z,961.92
2023-03-22T09:40:17.975Z,962.00
2023-03-22T09:41:07.976Z,961.96
2023-03-22T09:41:57.936Z,961.91
2023-03-22T09:42:47.946Z,961.91
2023-03-22T09:43:37.951Z,961.90
2023-03-22T09:44:27.914Z,961.90
2023-03-22T09:45:17.919Z,961.92
2023-03-22T09:46:07.902Z,961.91
2023-03-22T09:46:57.884Z,961.86
2023-03-22T09:47:47.921Z,961.85
2023-03-22T09:48:37.864Z,961.86
2023-03-22T09:49:27.873Z,961.87
2023-03-22T09:50:17.862Z,961.91
2023-03-22T09:51:07.846Z,961.85
2023-03-22T09:51:57.840Z,961.83
2023-03-22T09:52:47.802Z,961.84
2023-03-22T09:53:37.821Z,961.87
2023-03-22T09:54:27.804Z,961.83
2023-03-22T09:55:17.794Z,961.75
2023-03-22T09:56:07.764Z,961.74
2023-03-22T09:56:57.774Z,961.80
2023-03-22T09:57:47.771Z,961.73
2023-03-22T09:58:37.854Z,961.71
2023-03-22T09:59:27.744Z,961.69
2023-03-22T10:00:17.808Z,961.64
2023-03-22T10:01:07.888Z,961.68
2023-03-22T10:01:57.912Z,961.71
2023-03-22T10:02:47.762Z,961.67
2023-03-22T10:03:37.701Z,961.72
2023-03-22T10:04:27.711Z,961.64
2023-03-22T10:05:17.665Z,961.67
2023-03-22T10:06:07.663Z,961.63
2023-03-22T10:06:57.655Z,961.67
2023-03-22T10:07:47.640Z,961.70
2023-03-22T10:08:37.654Z,961.64
2023-03-22T10:09:27.643Z,961.63
2023-03-22T10:10:17.611Z,961.61
2023-03-22T10:11:07.652Z,961.58
2023-03-22T10:11:57.591Z,961.56
2023-03-22T10:12:47.591Z,961.60
2023-03-22T10:13:37.591Z,961.57
2023-03-22T10:14:27.595Z,961.58
2023-03-22T10:15:17.562Z,961.61
2023-03-22T10:16:07.577Z,961.61
2023-03-22T10:16:57.566Z,961.52
2023-03-22T10:17:47.530Z,961.49
2023-03-22T10:18:37.552Z,961.37
2023-03-22T10:19:27.513Z,961.32
2023-03-22T10:20:17.524Z,961.34
2023-03-22T10:21:07.493Z,961.31
2023-03-22T10:21:57.501Z,961.36
2023-03-22T10:22:47.492Z,961.42
2023-03-22T10:23:37.463Z,961.44